SVA1668 OEAB-OERK
Flight info
| Callsign | SVA1668 |
|---|---|
| Flight time | N/A |
| Altitude | 37000 |
| Route | DCT DUMSI H75 IRBAB Q313 UMRAN H76 MOBAG MOBAG1F |
| Aircraft | A320/M-SDE3FGHIRWY/LB1 |
Departure
| Time | N/A |
|---|---|
| Airport | Abha International Airport (OEAB) |
Arrival
| Time | 2026-05-03 20:19 |
|---|---|
| Airport | King Khalid International Airport (OERK) |
| Time | Latitude | Longitude | Altitude | Speed | Heading |
|---|---|---|---|---|---|
| 2026-05-03 20:15 | 24.76169 | 46.83782 | 5909 ft | 234 kts | 330° |
| 2026-05-03 20:15 | 24.77579 | 46.82894 | 5619 ft | 233 kts | 330° |
| 2026-05-03 20:15 | 24.78983 | 46.82010 | 5328 ft | 232 kts | 330° |
| 2026-05-03 20:15 | 24.80380 | 46.81129 | 5042 ft | 231 kts | 331° |
| 2026-05-03 20:16 | 24.81768 | 46.80254 | 4763 ft | 229 kts | 331° |
| 2026-05-03 20:16 | 24.83147 | 46.79384 | 4475 ft | 228 kts | 332° |
| 2026-05-03 20:16 | 24.84501 | 46.78530 | 4189 ft | 227 kts | 332° |
| 2026-05-03 20:16 | 24.85850 | 46.77679 | 3919 ft | 218 kts | 332° |
| 2026-05-03 20:17 | 24.87125 | 46.76874 | 3693 ft | 204 kts | 332° |
| 2026-05-03 20:17 | 24.88314 | 46.76123 | 3414 ft | 191 kts | 331° |
| 2026-05-03 20:17 | 24.89414 | 46.75429 | 3185 ft | 172 kts | 330° |
| 2026-05-03 20:17 | 24.90407 | 46.74802 | 2957 ft | 158 kts | 330° |
| 2026-05-03 20:18 | 24.91342 | 46.74212 | 2763 ft | 153 kts | 331° |
| 2026-05-03 20:18 | 24.92261 | 46.73632 | 2571 ft | 151 kts | 332° |
| 2026-05-03 20:18 | 24.93166 | 46.73057 | 2387 ft | 150 kts | 331° |
| 2026-05-03 20:18 | 24.94070 | 46.72488 | 2180 ft | 149 kts | 332° |
| 2026-05-03 20:19 | 24.94958 | 46.71927 | 2074 ft | 140 kts | 330° |
| 2026-05-03 20:19 | 24.95597 | 46.71524 | 2067 ft | 66 kts | 330° |
| 2026-05-03 20:19 | 24.95852 | 46.71360 | 2073 ft | 26 kts | 326° |
| 2026-05-03 20:19 | 24.95954 | 46.71244 | 2074 ft | 17 kts | 306° |
| 2026-05-03 20:20 | 24.96006 | 46.71133 | 2075 ft | 16 kts | 285° |
| 2026-05-03 20:20 | 24.95994 | 46.71019 | 2079 ft | 14 kts | 246° |
| 2026-05-03 20:20 | 24.95950 | 46.70931 | 2081 ft | 12 kts | 240° |
| 2026-05-03 20:20 | 24.95913 | 46.70860 | 2079 ft | 10 kts | 240° |
| 2026-05-03 20:21 | 24.95873 | 46.70783 | 2076 ft | 13 kts | 240° |
| 2026-05-03 20:21 | 24.95854 | 46.70712 | 2079 ft | 8 kts | 292° |
| 2026-05-03 20:21 | 24.95900 | 46.70673 | 2076 ft | 12 kts | 329° |
| 2026-05-03 20:21 | 24.95997 | 46.70612 | 2080 ft | 18 kts | 330° |
| 2026-05-03 20:22 | 24.96078 | 46.70554 | 2076 ft | 11 kts | 307° |
| 2026-05-03 20:22 | 24.96064 | 46.70483 | 2081 ft | 9 kts | 240° |
| 2026-05-03 20:22 | 24.96036 | 46.70430 | 2079 ft | 7 kts | 240° |
| 2026-05-03 20:22 | 24.96023 | 46.70383 | 2076 ft | 6 kts | 275° |
| 2026-05-03 20:23 | 24.96042 | 46.70352 | 2082 ft | 4 kts | 311° |
| 2026-05-03 20:23 | 24.96057 | 46.70333 | 2079 ft | 0 kts | 313° |